createdAt,value
2018-09-23T00:00:08.618Z,11.40
2018-09-23T00:02:36.915Z,11.50
2018-09-23T00:05:05.233Z,11.40
2018-09-23T00:07:33.569Z,11.40
2018-09-23T00:10:01.877Z,11.40
2018-09-23T00:12:30.175Z,11.30
2018-09-23T00:14:58.498Z,11.40
2018-09-23T00:17:26.789Z,11.40
2018-09-23T00:19:55.118Z,11.40
2018-09-23T00:22:23.485Z,11.40
2018-09-23T00:24:51.749Z,11.40
2018-09-23T00:27:20.037Z,11.40
2018-09-23T00:29:51.038Z,11.40
2018-09-23T00:32:21.341Z,11.40
2018-09-23T00:34:49.685Z,11.40
2018-09-23T00:37:17.997Z,11.50
2018-09-23T00:39:46.409Z,11.40
2018-09-23T00:42:14.821Z,11.40
2018-09-23T00:44:43.157Z,11.40
2018-09-23T00:47:11.464Z,11.30
2018-09-23T00:49:39.785Z,11.30
2018-09-23T00:52:08.140Z,11.30
2018-09-23T00:54:36.470Z,11.30
2018-09-23T00:57:04.777Z,11.40
2018-09-23T00:59:33.134Z,11.30
2018-09-23T01:02:01.437Z,11.40
2018-09-23T01:04:29.751Z,11.30
2018-09-23T01:06:58.070Z,11.30
2018-09-23T01:09:26.393Z,11.40
2018-09-23T01:11:54.688Z,11.40
2018-09-23T01:14:23.009Z,11.40
2018-09-23T01:16:51.303Z,11.40
2018-09-23T01:19:19.672Z,11.50
2018-09-23T01:21:48.185Z,11.50
2018-09-23T01:24:16.517Z,11.50
2018-09-23T01:26:44.832Z,11.60
2018-09-23T01:29:13.177Z,11.60
2018-09-23T01:31:41.474Z,11.60
2018-09-23T01:34:09.792Z,11.60
2018-09-23T01:36:38.092Z,11.60
2018-09-23T01:39:07.517Z,11.60
2018-09-23T01:41:35.861Z,11.60
2018-09-23T01:44:04.206Z,11.60
2018-09-23T01:46:32.553Z,11.60
2018-09-23T01:49:00.888Z,11.60
2018-09-23T01:51:29.186Z,11.60
2018-09-23T01:53:57.489Z,11.60
2018-09-23T01:56:25.816Z,11.70
2018-09-23T01:58:54.119Z,11.60
2018-09-23T02:01:22.429Z,11.70
2018-09-23T02:03:50.828Z,11.70
2018-09-23T02:06:19.162Z,11.60
2018-09-23T02:08:47.462Z,11.60
2018-09-23T02:11:15.780Z,11.60
2018-09-23T02:13:44.064Z,11.60
2018-09-23T02:16:12.384Z,11.60
2018-09-23T02:18:40.696Z,11.60
2018-09-23T02:21:09.073Z,11.60
2018-09-23T02:23:37.389Z,11.70
2018-09-23T02:26:05.823Z,11.60
2018-09-23T02:28:34.139Z,11.60
2018-09-23T02:31:02.466Z,11.70
2018-09-23T02:33:30.789Z,11.60
2018-09-23T02:35:59.117Z,11.60
2018-09-23T02:38:27.412Z,11.70
2018-09-23T02:40:55.737Z,11.70
2018-09-23T02:43:24.030Z,11.70
2018-09-23T02:45:52.353Z,11.80
2018-09-23T02:48:20.657Z,11.70
2018-09-23T02:50:48.967Z,11.70
2018-09-23T02:53:17.265Z,11.80
2018-09-23T02:55:45.590Z,11.90
2018-09-23T02:58:13.925Z,11.80
2018-09-23T03:00:42.245Z,11.80
2018-09-23T03:03:10.546Z,11.80
2018-09-23T03:05:38.913Z,11.80
2018-09-23T03:08:07.205Z,11.80
2018-09-23T03:10:35.534Z,11.80
2018-09-23T03:13:03.825Z,11.80
2018-09-23T03:15:32.167Z,11.80
2018-09-23T03:18:00.468Z,11.80
2018-09-23T03:20:28.804Z,11.90
2018-09-23T03:22:57.105Z,11.80
2018-09-23T03:25:25.439Z,11.90
2018-09-23T03:27:53.733Z,11.80
2018-09-23T03:30:22.140Z,11.90
2018-09-23T03:32:50.445Z,11.90
2018-09-23T03:35:18.772Z,12.00
2018-09-23T03:37:47.065Z,12.00
2018-09-23T03:40:15.420Z,12.00
2018-09-23T03:42:43.840Z,12.00
2018-09-23T03:45:12.157Z,12.10
2018-09-23T03:47:40.475Z,12.10
2018-09-23T03:50:08.801Z,12.00
2018-09-23T03:52:37.165Z,12.10
2018-09-23T03:55:05.566Z,12.10
2018-09-23T03:57:33.885Z,12.20
2018-09-23T04:00:02.198Z,12.20
2018-09-23T04:02:30.521Z,12.20
2018-09-23T04:04:58.830Z,12.20
2018-09-23T04:07:27.141Z,12.20
2018-09-23T04:09:55.464Z,12.10
2018-09-23T04:12:23.788Z,12.20
2018-09-23T04:14:52.097Z,12.20
2018-09-23T04:17:20.421Z,12.20
2018-09-23T04:19:48.727Z,12.20
2018-09-23T04:22:17.037Z,12.30
2018-09-23T04:24:45.349Z,12.40
2018-09-23T04:27:13.693Z,12.50
2018-09-23T04:29:41.997Z,12.50
2018-09-23T04:32:10.314Z,12.60
2018-09-23T04:34:38.613Z,12.60
2018-09-23T04:37:06.937Z,12.60
2018-09-23T04:39:35.240Z,12.60
2018-09-23T04:42:03.561Z,12.50
2018-09-23T04:44:31.869Z,12.50
2018-09-23T04:47:00.185Z,12.70
2018-09-23T04:49:28.480Z,12.80
2018-09-23T04:51:56.813Z,12.70
2018-09-23T04:54:25.133Z,12.70
2018-09-23T04:56:53.729Z,12.70
2018-09-23T04:59:22.037Z,12.70
2018-09-23T05:01:50.396Z,12.70
2018-09-23T05:04:18.726Z,12.80
2018-09-23T05:06:47.044Z,12.70
2018-09-23T05:09:15.342Z,12.70
2018-09-23T05:11:43.723Z,12.80
2018-09-23T05:14:12.018Z,12.80
2018-09-23T05:16:40.382Z,13.00
2018-09-23T05:19:08.717Z,13.20
2018-09-23T05:21:37.073Z,13.20
2018-09-23T05:24:05.402Z,13.30
2018-09-23T05:26:33.746Z,13.20
2018-09-23T05:29:02.064Z,13.20
2018-09-23T05:31:30.413Z,13.20
2018-09-23T05:33:58.740Z,13.30
2018-09-23T05:36:27.081Z,13.30
2018-09-23T05:38:55.375Z,13.20
2018-09-23T05:41:23.713Z,13.30
2018-09-23T05:43:52.109Z,13.40
2018-09-23T05:46:20.389Z,13.40
2018-09-23T05:48:48.706Z,13.50
2018-09-23T05:51:17.025Z,13.60
2018-09-23T05:53:45.415Z,13.60
2018-09-23T05:56:13.714Z,13.80
2018-09-23T05:58:42.358Z,13.80
2018-09-23T06:01:11.045Z,13.80
2018-09-23T06:03:39.361Z,13.90
2018-09-23T06:06:07.685Z,14.00
2018-09-23T06:08:36.010Z,14.10
2018-09-23T06:11:04.373Z,14.10
2018-09-23T06:13:32.670Z,14.10
2018-09-23T06:16:01.014Z,14.20
2018-09-23T06:18:29.396Z,14.10
2018-09-23T06:20:57.649Z,14.10
2018-09-23T06:23:25.966Z,14.10
2018-09-23T06:25:54.278Z,14.20
2018-09-23T06:28:22.593Z,14.40
2018-09-23T06:30:51.073Z,14.40
2018-09-23T06:33:19.580Z,14.50
2018-09-23T06:35:47.877Z,14.50
2018-09-23T06:38:16.189Z,14.60
2018-09-23T06:40:44.485Z,14.80
2018-09-23T06:43:12.800Z,14.80
2018-09-23T06:45:41.105Z,15.00
2018-09-23T06:48:09.444Z,15.10
2018-09-23T06:50:37.737Z,15.00
2018-09-23T06:53:06.180Z,15.10
2018-09-23T06:55:34.944Z,15.20
2018-09-23T06:58:03.257Z,15.20
2018-09-23T07:00:31.562Z,15.30
2018-09-23T07:02:59.886Z,15.20
2018-09-23T07:05:28.194Z,15.20
2018-09-23T07:07:56.609Z,15.40
2018-09-23T07:10:24.957Z,15.50
2018-09-23T07:12:53.404Z,15.50
2018-09-23T07:15:21.697Z,15.50
2018-09-23T07:17:50.018Z,15.60
2018-09-23T07:20:18.335Z,15.50
2018-09-23T07:22:46.663Z,15.50
2018-09-23T07:25:14.980Z,15.60
2018-09-23T07:27:43.330Z,15.70
2018-09-23T07:30:11.644Z,15.70
2018-09-23T07:32:39.969Z,15.80
2018-09-23T07:35:08.276Z,15.80
2018-09-23T07:37:36.768Z,15.80
2018-09-23T07:40:05.357Z,15.80
2018-09-23T07:42:33.579Z,15.80
2018-09-23T07:45:01.906Z,15.90
2018-09-23T07:47:30.222Z,15.80
2018-09-23T07:49:58.570Z,16.00
2018-09-23T07:52:26.869Z,16.00
2018-09-23T07:54:55.195Z,15.90
2018-09-23T07:57:23.497Z,15.90
2018-09-23T07:59:51.861Z,16.00
2018-09-23T08:02:20.182Z,16.10
2018-09-23T08:04:48.501Z,16.10
2018-09-23T08:07:16.798Z,16.20
2018-09-23T08:09:45.131Z,16.20
2018-09-23T08:12:13.429Z,16.30
2018-09-23T08:14:42.211Z,16.40
2018-09-23T08:17:10.179Z,16.40
2018-09-23T08:19:38.599Z,16.40
2018-09-23T08:22:07.034Z,16.40
2018-09-23T08:24:35.360Z,16.50
2018-09-23T08:27:03.674Z,16.50
2018-09-23T08:29:31.980Z,16.60
2018-09-23T08:32:00.287Z,16.70
2018-09-23T08:34:28.604Z,16.70
2018-09-23T08:36:56.892Z,16.60
2018-09-23T08:39:25.213Z,16.70
2018-09-23T08:41:53.514Z,16.70
2018-09-23T08:44:21.835Z,16.70
2018-09-23T08:46:50.133Z,16.70
2018-09-23T08:49:18.480Z,16.70
2018-09-23T08:51:46.824Z,16.70
2018-09-23T08:54:15.092Z,16.70
2018-09-23T08:56:43.393Z,16.70
2018-09-23T08:59:11.720Z,16.80
2018-09-23T09:01:40.017Z,16.90
2018-09-23T09:04:08.327Z,16.90
2018-09-23T09:06:36.618Z,16.80
2018-09-23T09:09:06.510Z,16.90
2018-09-23T09:11:35.225Z,16.90
2018-09-23T09:14:03.564Z,16.90
2018-09-23T09:16:31.852Z,16.80
2018-09-23T09:19:00.157Z,16.90
2018-09-23T09:21:28.457Z,16.90
2018-09-23T09:23:56.821Z,17.00
2018-09-23T09:26:25.133Z,17.00
2018-09-23T09:28:53.448Z,17.00
2018-09-23T09:31:21.745Z,17.00
2018-09-23T09:33:50.052Z,17.10
2018-09-23T09:36:18.362Z,17.10
2018-09-23T09:38:46.675Z,17.10
2018-09-23T09:41:14.986Z,17.30
2018-09-23T09:43:43.294Z,17.30
2018-09-23T09:46:11.629Z,17.20
2018-09-23T09:48:39.925Z,17.30
2018-09-23T09:51:08.240Z,17.30
2018-09-23T09:53:36.525Z,17.30
2018-09-23T09:56:04.870Z,17.30
2018-09-23T09:58:33.162Z,17.30
2018-09-23T10:01:01.476Z,17.30
2018-09-23T10:03:29.828Z,17.30
2018-09-23T10:05:58.237Z,17.30
2018-09-23T10:08:26.546Z,17.30
2018-09-23T10:10:54.849Z,17.30
2018-09-23T10:13:23.141Z,17.30
2018-09-23T10:15:51.473Z,17.20
2018-09-23T10:18:19.769Z,17.30
2018-09-23T10:20:48.084Z,17.30
2018-09-23T10:23:16.451Z,17.30
2018-09-23T10:25:44.798Z,17.30
2018-09-23T10:28:13.145Z,17.40
2018-09-23T10:30:41.460Z,17.40
2018-09-23T10:33:09.772Z,17.40
2018-09-23T10:35:38.188Z,17.40
2018-09-23T10:38:06.473Z,17.40
2018-09-23T10:40:34.809Z,17.40
2018-09-23T10:43:03.106Z,17.40
2018-09-23T10:45:31.417Z,17.40
2018-09-23T10:47:59.746Z,17.50
2018-09-23T10:50:28.084Z,17.50
2018-09-23T10:52:56.376Z,17.50
2018-09-23T10:55:24.710Z,17.50
2018-09-23T10:57:53.000Z,17.50
2018-09-23T11:00:21.329Z,17.50
2018-09-23T11:02:49.629Z,17.50
2018-09-23T11:05:17.938Z,17.50
2018-09-23T11:07:46.244Z,17.50
2018-09-23T11:10:14.566Z,17.60
2018-09-23T11:12:42.870Z,17.70
2018-09-23T11:15:11.221Z,17.80
2018-09-23T11:17:39.506Z,17.80
2018-09-23T11:20:07.854Z,17.80
2018-09-23T11:22:36.186Z,17.90
2018-09-23T11:25:05.273Z,18.00
2018-09-23T11:27:33.564Z,18.10
2018-09-23T11:30:01.881Z,18.10
2018-09-23T11:32:30.184Z,18.20
2018-09-23T11:34:58.503Z,18.30
2018-09-23T11:37:26.853Z,18.40
2018-09-23T11:39:55.208Z,18.50
2018-09-23T11:42:23.465Z,18.50
2018-09-23T11:44:51.765Z,18.50
2018-09-23T11:47:20.081Z,18.50
2018-09-23T11:49:48.374Z,18.50
2018-09-23T11:52:16.696Z,18.50
2018-09-23T11:54:45.000Z,18.60
2018-09-23T11:57:13.318Z,18.90
2018-09-23T11:59:41.621Z,19.00
2018-09-23T12:02:09.970Z,19.00
2018-09-23T12:04:38.337Z,19.00
2018-09-23T12:07:06.958Z,18.90
2018-09-23T12:09:36.296Z,18.90
2018-09-23T12:12:05.013Z,19.00
2018-09-23T12:14:37.069Z,19.20
2018-09-23T12:17:05.545Z,19.30
2018-09-23T12:19:34.413Z,19.50
2018-09-23T12:22:02.881Z,19.60
2018-09-23T12:24:32.001Z,19.50
2018-09-23T12:27:00.488Z,19.50
2018-09-23T12:29:29.583Z,19.50
2018-09-23T12:31:58.859Z,19.50
2018-09-23T12:34:28.782Z,19.40
2018-09-23T12:36:57.156Z,19.30
2018-09-23T12:39:30.299Z,19.50
2018-09-23T12:41:59.528Z,19.50
2018-09-23T12:44:29.345Z,19.50
2018-09-23T12:46:58.201Z,19.60
2018-09-23T12:49:27.852Z,19.60
2018-09-23T12:51:56.479Z,19.60
2018-09-23T12:54:25.882Z,19.70
2018-09-23T12:56:54.381Z,19.90
2018-09-23T12:59:22.770Z,20.00
2018-09-23T13:01:51.185Z,20.00
2018-09-23T13:04:19.495Z,19.90
2018-09-23T13:06:47.824Z,20.10
2018-09-23T13:09:16.120Z,20.20
2018-09-23T13:11:44.445Z,20.80
2018-09-23T13:14:12.745Z,20.60
2018-09-23T13:16:41.089Z,20.50
2018-09-23T13:19:09.421Z,20.20
2018-09-23T13:21:37.745Z,20.10
2018-09-23T13:24:06.192Z,20.10
2018-09-23T13:26:34.508Z,20.00
2018-09-23T13:29:02.914Z,19.90
2018-09-23T13:31:31.186Z,20.00
2018-09-23T13:33:59.486Z,20.10
2018-09-23T13:36:27.805Z,20.00
2018-09-23T13:38:56.118Z,20.00
2018-09-23T13:41:25.321Z,20.00
2018-09-23T13:43:53.639Z,19.90
2018-09-23T13:46:21.961Z,19.80
2018-09-23T13:48:50.270Z,19.70
2018-09-23T13:51:18.776Z,19.70
2018-09-23T13:53:47.092Z,19.60
2018-09-23T13:56:15.396Z,19.70
2018-09-23T13:58:43.700Z,19.70
2018-09-23T14:01:12.047Z,19.60
2018-09-23T14:03:40.344Z,19.70
2018-09-23T14:06:08.674Z,19.70
2018-09-23T14:08:36.977Z,19.70
2018-09-23T14:11:05.297Z,19.80
2018-09-23T14:13:33.610Z,19.70
2018-09-23T14:16:01.937Z,19.70
2018-09-23T14:18:30.246Z,19.50
2018-09-23T14:20:58.592Z,19.40
2018-09-23T14:23:26.918Z,19.40
2018-09-23T14:25:55.247Z,19.10
2018-09-23T14:28:23.557Z,18.80
2018-09-23T14:30:51.877Z,18.60
2018-09-23T14:33:20.194Z,18.50
2018-09-23T14:35:48.504Z,18.40
2018-09-23T14:38:16.810Z,18.30
2018-09-23T14:40:45.145Z,18.30
2018-09-23T14:43:13.440Z,18.20
2018-09-23T14:45:41.761Z,18.20
2018-09-23T14:48:10.648Z,18.20
2018-09-23T14:50:38.952Z,18.20
2018-09-23T14:53:07.513Z,17.90
2018-09-23T14:55:36.072Z,17.00
2018-09-23T14:58:04.405Z,16.60
2018-09-23T15:00:32.757Z,16.50
2018-09-23T15:03:01.071Z,16.50
2018-09-23T15:05:29.372Z,16.50
2018-09-23T15:07:57.696Z,16.60
2018-09-23T15:10:26.001Z,16.70
2018-09-23T15:12:54.321Z,16.60
2018-09-23T15:15:22.629Z,16.60
2018-09-23T15:17:50.946Z,16.50
2018-09-23T15:20:19.244Z,16.30
2018-09-23T15:22:47.589Z,16.20
2018-09-23T15:25:15.896Z,16.00
2018-09-23T15:27:44.220Z,16.00
2018-09-23T15:30:12.530Z,15.90
2018-09-23T15:32:40.901Z,15.80
2018-09-23T15:35:09.509Z,15.80
2018-09-23T15:37:37.842Z,15.70
2018-09-23T15:40:06.289Z,15.70
2018-09-23T15:42:34.637Z,15.60
2018-09-23T15:45:02.970Z,15.60
2018-09-23T15:47:31.293Z,15.60
2018-09-23T15:49:59.689Z,15.60
2018-09-23T15:52:28.039Z,15.50
2018-09-23T15:54:56.349Z,15.40
2018-09-23T15:57:24.671Z,15.40
2018-09-23T15:59:52.980Z,15.40
2018-09-23T16:02:22.025Z,15.30
2018-09-23T16:04:50.329Z,15.20
2018-09-23T16:07:18.677Z,15.10
2018-09-23T16:09:46.973Z,15.10
2018-09-23T16:12:15.320Z,15.00
2018-09-23T16:14:43.646Z,15.00
2018-09-23T16:17:11.952Z,14.80
2018-09-23T16:19:40.260Z,14.60
2018-09-23T16:22:08.573Z,14.30
2018-09-23T16:24:38.118Z,14.10
2018-09-23T16:27:06.444Z,14.00
2018-09-23T16:29:34.788Z,13.80
2018-09-23T16:32:03.671Z,13.70
2018-09-23T16:34:32.016Z,13.50
2018-09-23T16:37:00.324Z,13.40
2018-09-23T16:39:29.386Z,13.30
2018-09-23T16:41:57.749Z,13.50
2018-09-23T16:44:26.090Z,13.30
2018-09-23T16:46:54.442Z,13.10
2018-09-23T16:49:22.768Z,13.10
2018-09-23T16:51:51.082Z,13.00
2018-09-23T16:54:19.440Z,12.90
2018-09-23T16:56:47.724Z,13.00
2018-09-23T16:59:16.050Z,13.00
2018-09-23T17:01:44.363Z,12.90
2018-09-23T17:04:12.728Z,12.80
2018-09-23T17:06:41.059Z,12.90
2018-09-23T17:09:10.084Z,12.70
2018-09-23T17:11:38.825Z,12.60
2018-09-23T17:14:07.296Z,12.50
2018-09-23T17:16:35.698Z,12.40
2018-09-23T17:19:04.075Z,12.30
2018-09-23T17:21:32.579Z,12.30
2018-09-23T17:24:00.987Z,12.20
2018-09-23T17:26:29.337Z,12.20
2018-09-23T17:28:57.726Z,12.20
2018-09-23T17:31:26.061Z,12.10
2018-09-23T17:33:54.377Z,12.10
2018-09-23T17:36:22.675Z,12.10
2018-09-23T17:38:51.001Z,12.00
2018-09-23T17:41:19.309Z,12.00
2018-09-23T17:43:47.628Z,11.90
2018-09-23T17:46:15.986Z,11.90
2018-09-23T17:48:44.525Z,11.90
2018-09-23T17:51:12.889Z,11.90
2018-09-23T17:53:41.203Z,11.80
2018-09-23T17:56:09.529Z,11.70
2018-09-23T17:58:38.015Z,11.70
2018-09-23T18:01:06.345Z,11.70
2018-09-23T18:03:34.635Z,12.00
2018-09-23T18:06:02.970Z,12.30
2018-09-23T18:08:31.300Z,12.60
2018-09-23T18:10:59.722Z,12.80
2018-09-23T18:13:28.025Z,12.70
2018-09-23T18:15:56.345Z,12.50
2018-09-23T18:18:24.651Z,12.10
2018-09-23T18:20:52.976Z,11.90
2018-09-23T18:23:21.271Z,11.80
2018-09-23T18:25:49.589Z,11.70
2018-09-23T18:28:17.891Z,11.70
2018-09-23T18:30:46.246Z,11.70
2018-09-23T18:33:17.630Z,11.70
2018-09-23T18:35:45.946Z,11.60
2018-09-23T18:38:14.233Z,11.50
2018-09-23T18:40:42.545Z,11.40
2018-09-23T18:43:10.851Z,11.40
2018-09-23T18:45:39.152Z,11.40
2018-09-23T18:48:07.452Z,11.30
2018-09-23T18:50:35.760Z,11.30
2018-09-23T18:53:23.790Z,11.30
2018-09-23T18:55:52.936Z,11.20
2018-09-23T18:58:21.235Z,11.00
2018-09-23T19:00:49.692Z,11.00
2018-09-23T19:03:18.072Z,11.00
2018-09-23T19:05:46.322Z,11.00
2018-09-23T19:08:14.671Z,11.00
2018-09-23T19:10:43.012Z,10.90
2018-09-23T19:13:16.797Z,10.90
2018-09-23T19:15:45.154Z,11.00
2018-09-23T19:18:13.452Z,11.00
2018-09-23T19:20:41.779Z,10.90
2018-09-23T19:23:11.551Z,10.80
2018-09-23T19:25:39.861Z,10.70
2018-09-23T19:28:08.153Z,10.70
2018-09-23T19:33:11.128Z,10.70
2018-09-23T19:35:39.545Z,10.60
2018-09-23T19:38:07.846Z,10.60
2018-09-23T19:40:36.170Z,10.70
2018-09-23T19:43:04.564Z,10.70
2018-09-23T19:45:32.833Z,10.80
2018-09-23T19:48:01.120Z,10.80
2018-09-23T19:50:29.466Z,10.80
2018-09-23T19:52:57.765Z,10.70
2018-09-23T19:55:26.081Z,10.70
2018-09-23T19:57:54.381Z,10.70
2018-09-23T20:00:22.689Z,10.70
2018-09-23T20:02:51.022Z,10.80
2018-09-23T20:05:19.340Z,10.80
2018-09-23T20:07:47.657Z,10.70
2018-09-23T20:10:15.986Z,10.60
2018-09-23T20:12:44.372Z,10.60
2018-09-23T20:15:14.640Z,10.60
2018-09-23T20:17:42.963Z,10.50
2018-09-23T20:20:11.274Z,10.40
2018-09-23T20:22:39.592Z,10.40
2018-09-23T20:25:07.913Z,10.30
2018-09-23T20:27:36.252Z,10.30
2018-09-23T20:30:05.265Z,10.20
2018-09-23T20:32:33.624Z,10.10
2018-09-23T20:35:02.112Z,10.00
2018-09-23T20:37:30.393Z,10.00
2018-09-23T20:39:58.682Z,9.90
2018-09-23T20:42:26.983Z,9.90
2018-09-23T20:44:55.306Z,9.80
2018-09-23T20:47:23.598Z,9.70
2018-09-23T20:49:51.926Z,9.60
2018-09-23T20:52:20.260Z,9.60
2018-09-23T20:54:48.567Z,9.40
2018-09-23T20:57:16.877Z,9.40
2018-09-23T20:59:45.173Z,9.30
2018-09-23T21:02:13.576Z,9.30
2018-09-23T21:04:41.902Z,9.30
2018-09-23T21:07:10.229Z,9.30
2018-09-23T21:09:38.521Z,9.40
2018-09-23T21:12:06.826Z,9.40
2018-09-23T21:14:35.133Z,9.40
2018-09-23T21:17:03.474Z,9.50
2018-09-23T21:19:31.797Z,9.50
2018-09-23T21:22:00.116Z,9.40
2018-09-23T21:24:28.429Z,9.40
2018-09-23T21:26:56.739Z,9.50
2018-09-23T21:29:25.046Z,9.50
2018-09-23T21:31:53.368Z,9.60
2018-09-23T21:34:21.677Z,9.60
2018-09-23T21:36:49.984Z,9.60
2018-09-23T21:39:18.282Z,9.50
2018-09-23T21:41:46.584Z,9.50
2018-09-23T21:44:14.877Z,9.50
2018-09-23T21:46:43.186Z,9.60
2018-09-23T21:49:11.489Z,9.50
2018-09-23T21:51:39.793Z,9.50
2018-09-23T21:54:08.097Z,9.40
2018-09-23T21:56:36.405Z,9.50
2018-09-23T21:59:04.700Z,9.50
2018-09-23T22:01:32.977Z,9.50
2018-09-23T22:04:01.298Z,9.40
2018-09-23T22:06:29.585Z,9.40
2018-09-23T22:08:57.910Z,9.40
2018-09-23T22:11:26.192Z,9.50
2018-09-23T22:13:54.516Z,9.50
2018-09-23T22:16:22.810Z,9.40
2018-09-23T22:18:51.121Z,9.50
2018-09-23T22:21:19.413Z,9.40
2018-09-23T22:23:47.713Z,9.50
2018-09-23T22:26:16.001Z,9.40
2018-09-23T22:28:44.309Z,9.40
2018-09-23T22:31:12.637Z,9.50
2018-09-23T22:33:40.949Z,9.50
2018-09-23T22:36:09.238Z,9.40
2018-09-23T22:38:37.549Z,9.50
2018-09-23T22:41:06.492Z,9.40
2018-09-23T22:43:34.805Z,9.50
2018-09-23T22:46:03.169Z,9.40
2018-09-23T22:48:31.478Z,9.30
2018-09-23T22:50:59.837Z,9.10
2018-09-23T22:53:28.141Z,9.00
2018-09-23T22:55:56.424Z,8.80
2018-09-23T22:58:24.741Z,8.80
2018-09-23T23:00:53.033Z,8.60
2018-09-23T23:03:21.350Z,8.70
2018-09-23T23:05:49.645Z,8.50
2018-09-23T23:08:17.959Z,8.70
2018-09-23T23:10:46.250Z,8.70
2018-09-23T23:13:14.553Z,8.70
2018-09-23T23:15:42.844Z,8.80
2018-09-23T23:18:11.155Z,8.80
2018-09-23T23:20:39.441Z,8.90
2018-09-23T23:23:07.753Z,8.80
2018-09-23T23:25:36.041Z,8.80
2018-09-23T23:28:04.357Z,8.70
2018-09-23T23:30:32.675Z,8.70
2018-09-23T23:33:00.976Z,8.80
2018-09-23T23:38:03.079Z,8.80
2018-09-23T23:40:31.368Z,8.70
2018-09-23T23:42:59.677Z,8.80
2018-09-23T23:45:27.977Z,8.80
2018-09-23T23:47:56.285Z,8.90
2018-09-23T23:50:24.577Z,8.80
2018-09-23T23:52:52.906Z,8.80
2018-09-23T23:55:21.216Z,8.90
2018-09-23T23:57:49.513Z,8.90
